sensor_id;sensor_type;location;lat;lon;timestamp;P1;durP1;ratioP1;P2;durP2;ratioP2
18568;SDS011;14780;48.316;-1.050;2023-03-25T00:02:23;6.80;;;2.88;;
18568;SDS011;14780;48.316;-1.050;2023-03-25T00:05:10;7.00;;;2.72;;
18568;SDS011;14780;48.316;-1.050;2023-03-25T00:07:57;4.63;;;2.70;;
18568;SDS011;14780;48.316;-1.050;2023-03-25T00:10:41;4.50;;;2.42;;
18568;SDS011;14780;48.316;-1.050;2023-03-25T00:13:26;6.97;;;3.05;;
18568;SDS011;14780;48.316;-1.050;2023-03-25T00:16:14;6.88;;;3.00;;
18568;SDS011;14780;48.316;-1.050;2023-03-25T00:19:01;6.30;;;2.55;;
18568;SDS011;14780;48.316;-1.050;2023-03-25T00:21:46;6.70;;;2.50;;
18568;SDS011;14780;48.316;-1.050;2023-03-25T00:24:33;7.18;;;2.58;;
18568;SDS011;14780;48.316;-1.050;2023-03-25T00:27:17;4.88;;;2.35;;
18568;SDS011;14780;48.316;-1.050;2023-03-25T00:30:03;5.15;;;2.60;;
18568;SDS011;14780;48.316;-1.050;2023-03-25T00:32:48;6.60;;;2.67;;
18568;SDS011;14780;48.316;-1.050;2023-03-25T00:35:36;5.68;;;2.67;;
18568;SDS011;14780;48.316;-1.050;2023-03-25T00:38:22;4.68;;;2.38;;
18568;SDS011;14780;48.316;-1.050;2023-03-25T00:41:14;5.95;;;2.92;;
18568;SDS011;14780;48.316;-1.050;2023-03-25T00:44:08;4.72;;;2.20;;
18568;SDS011;14780;48.316;-1.050;2023-03-25T00:46:59;5.35;;;2.50;;
18568;SDS011;14780;48.316;-1.050;2023-03-25T00:49:44;4.70;;;2.40;;
18568;SDS011;14780;48.316;-1.050;2023-03-25T00:52:29;5.55;;;2.65;;
18568;SDS011;14780;48.316;-1.050;2023-03-25T00:55:14;4.25;;;2.33;;
18568;SDS011;14780;48.316;-1.050;2023-03-25T00:57:59;5.07;;;2.67;;
18568;SDS011;14780;48.316;-1.050;2023-03-25T01:00:45;4.32;;;2.25;;
18568;SDS011;14780;48.316;-1.050;2023-03-25T01:03:30;4.78;;;2.35;;
18568;SDS011;14780;48.316;-1.050;2023-03-25T01:06:19;4.05;;;2.30;;
18568;SDS011;14780;48.316;-1.050;2023-03-25T01:09:07;4.75;;;2.30;;
18568;SDS011;14780;48.316;-1.050;2023-03-25T01:11:56;6.07;;;2.42;;
18568;SDS011;14780;48.316;-1.050;2023-03-25T01:14:40;4.78;;;2.63;;
18568;SDS011;14780;48.316;-1.050;2023-03-25T01:17:25;4.45;;;2.42;;
18568;SDS011;14780;48.316;-1.050;2023-03-25T01:20:10;5.25;;;2.45;;
18568;SDS011;14780;48.316;-1.050;2023-03-25T01:22:55;4.38;;;2.30;;
18568;SDS011;14780;48.316;-1.050;2023-03-25T01:25:40;4.95;;;2.17;;
18568;SDS011;14780;48.316;-1.050;2023-03-25T01:28:25;5.53;;;2.40;;
18568;SDS011;14780;48.316;-1.050;2023-03-25T01:31:12;3.75;;;2.03;;
18568;SDS011;14780;48.316;-1.050;2023-03-25T01:33:57;4.93;;;2.28;;
18568;SDS011;14780;48.316;-1.050;2023-03-25T01:36:43;3.92;;;2.15;;
18568;SDS011;14780;48.316;-1.050;2023-03-25T01:39:29;5.28;;;2.17;;
18568;SDS011;14780;48.316;-1.050;2023-03-25T01:42:13;3.45;;;1.88;;
18568;SDS011;14780;48.316;-1.050;2023-03-25T01:50:53;4.68;;;2.00;;
18568;SDS011;14780;48.316;-1.050;2023-03-25T01:53:43;4.60;;;2.47;;
18568;SDS011;14780;48.316;-1.050;2023-03-25T01:56:30;4.40;;;2.05;;
18568;SDS011;14780;48.316;-1.050;2023-03-25T01:59:19;4.22;;;1.92;;
18568;SDS011;14780;48.316;-1.050;2023-03-25T02:02:09;5.28;;;2.25;;
18568;SDS011;14780;48.316;-1.050;2023-03-25T02:04:59;4.18;;;2.15;;
18568;SDS011;14780;48.316;-1.050;2023-03-25T02:07:50;3.95;;;2.00;;
18568;SDS011;14780;48.316;-1.050;2023-03-25T02:10:37;4.38;;;1.92;;
18568;SDS011;14780;48.316;-1.050;2023-03-25T02:13:22;2.70;;;1.80;;
18568;SDS011;14780;48.316;-1.050;2023-03-25T02:16:10;4.18;;;2.20;;
18568;SDS011;14780;48.316;-1.050;2023-03-25T02:28:32;3.67;;;1.88;;
18568;SDS011;14780;48.316;-1.050;2023-03-25T02:40:55;4.72;;;1.88;;
18568;SDS011;14780;48.316;-1.050;2023-03-25T02:46:32;2.97;;;1.90;;
18568;SDS011;14780;48.316;-1.050;2023-03-25T02:49:21;4.40;;;2.00;;
18568;SDS011;14780;48.316;-1.050;2023-03-25T02:52:14;4.72;;;2.10;;
18568;SDS011;14780;48.316;-1.050;2023-03-25T02:54:59;4.75;;;2.10;;
18568;SDS011;14780;48.316;-1.050;2023-03-25T02:57:48;3.17;;;1.90;;
18568;SDS011;14780;48.316;-1.050;2023-03-25T03:00:35;3.47;;;1.90;;
18568;SDS011;14780;48.316;-1.050;2023-03-25T03:03:21;3.05;;;1.85;;
18568;SDS011;14780;48.316;-1.050;2023-03-25T03:06:06;5.28;;;2.03;;
18568;SDS011;14780;48.316;-1.050;2023-03-25T03:12:36;2.60;;;1.73;;
18568;SDS011;14780;48.316;-1.050;2023-03-25T03:15:42;3.13;;;1.73;;
18568;SDS011;14780;48.316;-1.050;2023-03-25T03:18:49;5.00;;;1.67;;
18568;SDS011;14780;48.316;-1.050;2023-03-25T03:24:38;3.38;;;1.75;;
18568;SDS011;14780;48.316;-1.050;2023-03-25T03:27:31;3.85;;;1.92;;
18568;SDS011;14780;48.316;-1.050;2023-03-25T03:30:47;3.30;;;1.90;;
18568;SDS011;14780;48.316;-1.050;2023-03-25T03:33:51;4.13;;;1.83;;
18568;SDS011;14780;48.316;-1.050;2023-03-25T03:36:46;4.07;;;1.98;;
18568;SDS011;14780;48.316;-1.050;2023-03-25T03:39:34;4.32;;;1.90;;
18568;SDS011;14780;48.316;-1.050;2023-03-25T03:45:12;4.15;;;2.10;;
18568;SDS011;14780;48.316;-1.050;2023-03-25T03:48:07;3.13;;;1.83;;
18568;SDS011;14780;48.316;-1.050;2023-03-25T03:51:22;3.33;;;1.98;;
18568;SDS011;14780;48.316;-1.050;2023-03-25T03:54:10;4.90;;;2.08;;
18568;SDS011;14780;48.316;-1.050;2023-03-25T03:57:08;3.95;;;1.88;;
18568;SDS011;14780;48.316;-1.050;2023-03-25T04:02:54;5.43;;;2.15;;
18568;SDS011;14780;48.316;-1.050;2023-03-25T04:05:58;4.75;;;2.20;;
18568;SDS011;14780;48.316;-1.050;2023-03-25T04:08:55;3.80;;;2.00;;
18568;SDS011;14780;48.316;-1.050;2023-03-25T04:11:52;4.75;;;2.15;;
18568;SDS011;14780;48.316;-1.050;2023-03-25T04:14:41;4.72;;;2.10;;
18568;SDS011;14780;48.316;-1.050;2023-03-25T04:17:28;3.63;;;2.08;;
18568;SDS011;14780;48.316;-1.050;2023-03-25T04:20:17;5.70;;;2.05;;
18568;SDS011;14780;48.316;-1.050;2023-03-25T04:23:07;3.75;;;2.20;;
18568;SDS011;14780;48.316;-1.050;2023-03-25T04:25:52;2.80;;;1.77;;
18568;SDS011;14780;48.316;-1.050;2023-03-25T04:28:36;4.18;;;2.10;;
18568;SDS011;14780;48.316;-1.050;2023-03-25T04:31:24;3.33;;;1.85;;
18568;SDS011;14780;48.316;-1.050;2023-03-25T04:34:13;4.35;;;2.08;;
18568;SDS011;14780;48.316;-1.050;2023-03-25T04:36:58;3.70;;;1.95;;
18568;SDS011;14780;48.316;-1.050;2023-03-25T04:39:44;5.78;;;2.47;;
18568;SDS011;14780;48.316;-1.050;2023-03-25T04:42:29;4.63;;;2.20;;
18568;SDS011;14780;48.316;-1.050;2023-03-25T04:45:20;3.97;;;2.20;;
18568;SDS011;14780;48.316;-1.050;2023-03-25T04:48:05;3.95;;;2.10;;
18568;SDS011;14780;48.316;-1.050;2023-03-25T04:51:00;5.25;;;2.00;;
18568;SDS011;14780;48.316;-1.050;2023-03-25T04:53:45;5.82;;;2.25;;
18568;SDS011;14780;48.316;-1.050;2023-03-25T04:56:30;4.03;;;2.10;;
18568;SDS011;14780;48.316;-1.050;2023-03-25T04:59:15;3.67;;;1.63;;
18568;SDS011;14780;48.316;-1.050;2023-03-25T05:02:02;5.70;;;2.15;;
18568;SDS011;14780;48.316;-1.050;2023-03-25T05:04:48;4.70;;;2.60;;
18568;SDS011;14780;48.316;-1.050;2023-03-25T05:07:33;4.43;;;2.10;;
18568;SDS011;14780;48.316;-1.050;2023-03-25T05:10:20;5.82;;;2.22;;
18568;SDS011;14780;48.316;-1.050;2023-03-25T05:13:06;4.45;;;2.20;;
18568;SDS011;14780;48.316;-1.050;2023-03-25T05:15:51;5.47;;;2.22;;
18568;SDS011;14780;48.316;-1.050;2023-03-25T05:18:36;5.05;;;2.40;;
18568;SDS011;14780;48.316;-1.050;2023-03-25T05:21:21;3.60;;;1.90;;
18568;SDS011;14780;48.316;-1.050;2023-03-25T05:24:06;7.22;;;2.20;;
18568;SDS011;14780;48.316;-1.050;2023-03-25T05:26:52;4.65;;;2.47;;
18568;SDS011;14780;48.316;-1.050;2023-03-25T05:29:37;6.10;;;2.30;;
18568;SDS011;14780;48.316;-1.050;2023-03-25T05:32:22;4.30;;;2.38;;
18568;SDS011;14780;48.316;-1.050;2023-03-25T05:35:12;5.32;;;2.50;;
18568;SDS011;14780;48.316;-1.050;2023-03-25T05:37:56;4.90;;;1.95;;
18568;SDS011;14780;48.316;-1.050;2023-03-25T05:40:41;4.07;;;2.20;;
18568;SDS011;14780;48.316;-1.050;2023-03-25T05:43:28;5.13;;;2.45;;
18568;SDS011;14780;48.316;-1.050;2023-03-25T05:46:18;5.55;;;2.33;;
18568;SDS011;14780;48.316;-1.050;2023-03-25T05:49:03;4.22;;;2.35;;
18568;SDS011;14780;48.316;-1.050;2023-03-25T05:51:47;7.97;;;2.58;;
18568;SDS011;14780;48.316;-1.050;2023-03-25T05:54:37;4.95;;;2.42;;
18568;SDS011;14780;48.316;-1.050;2023-03-25T05:57:24;5.82;;;2.45;;
18568;SDS011;14780;48.316;-1.050;2023-03-25T06:00:09;5.78;;;2.85;;
18568;SDS011;14780;48.316;-1.050;2023-03-25T06:02:55;4.75;;;2.20;;
18568;SDS011;14780;48.316;-1.050;2023-03-25T06:05:41;5.97;;;2.30;;
18568;SDS011;14780;48.316;-1.050;2023-03-25T06:08:26;4.93;;;2.42;;
18568;SDS011;14780;48.316;-1.050;2023-03-25T06:11:12;4.78;;;2.35;;
18568;SDS011;14780;48.316;-1.050;2023-03-25T06:13:57;5.45;;;2.95;;
18568;SDS011;14780;48.316;-1.050;2023-03-25T06:16:41;4.50;;;2.20;;
18568;SDS011;14780;48.316;-1.050;2023-03-25T06:19:27;5.95;;;2.40;;
18568;SDS011;14780;48.316;-1.050;2023-03-25T06:22:11;5.75;;;2.33;;
18568;SDS011;14780;48.316;-1.050;2023-03-25T06:24:56;5.20;;;2.30;;
18568;SDS011;14780;48.316;-1.050;2023-03-25T06:27:41;7.07;;;2.70;;
18568;SDS011;14780;48.316;-1.050;2023-03-25T06:30:26;6.13;;;2.72;;
18568;SDS011;14780;48.316;-1.050;2023-03-25T06:33:11;5.03;;;2.53;;
18568;SDS011;14780;48.316;-1.050;2023-03-25T06:35:56;6.60;;;2.58;;
18568;SDS011;14780;48.316;-1.050;2023-03-25T06:38:41;7.07;;;2.90;;
18568;SDS011;14780;48.316;-1.050;2023-03-25T06:41:26;5.45;;;2.67;;
18568;SDS011;14780;48.316;-1.050;2023-03-25T06:44:11;5.07;;;1.90;;
18568;SDS011;14780;48.316;-1.050;2023-03-25T06:46:56;6.57;;;2.58;;
18568;SDS011;14780;48.316;-1.050;2023-03-25T06:49:43;6.20;;;2.70;;
18568;SDS011;14780;48.316;-1.050;2023-03-25T06:52:27;5.35;;;2.42;;
18568;SDS011;14780;48.316;-1.050;2023-03-25T06:55:12;6.95;;;2.50;;
18568;SDS011;14780;48.316;-1.050;2023-03-25T06:57:58;5.30;;;2.60;;
18568;SDS011;14780;48.316;-1.050;2023-03-25T07:00:42;5.78;;;2.20;;
18568;SDS011;14780;48.316;-1.050;2023-03-25T07:03:29;4.93;;;2.50;;
18568;SDS011;14780;48.316;-1.050;2023-03-25T07:06:18;5.80;;;2.50;;
18568;SDS011;14780;48.316;-1.050;2023-03-25T07:09:04;5.33;;;2.40;;
18568;SDS011;14780;48.316;-1.050;2023-03-25T07:11:49;6.68;;;2.53;;
18568;SDS011;14780;48.316;-1.050;2023-03-25T07:14:33;6.13;;;2.80;;
18568;SDS011;14780;48.316;-1.050;2023-03-25T07:17:19;9.30;;;2.92;;
18568;SDS011;14780;48.316;-1.050;2023-03-25T07:20:05;4.88;;;2.25;;
18568;SDS011;14780;48.316;-1.050;2023-03-25T07:22:50;5.93;;;2.78;;
18568;SDS011;14780;48.316;-1.050;2023-03-25T07:25:38;4.90;;;2.40;;
18568;SDS011;14780;48.316;-1.050;2023-03-25T07:28:23;5.53;;;2.63;;
18568;SDS011;14780;48.316;-1.050;2023-03-25T07:31:07;5.80;;;2.75;;
18568;SDS011;14780;48.316;-1.050;2023-03-25T07:33:54;6.70;;;2.92;;
18568;SDS011;14780;48.316;-1.050;2023-03-25T07:36:38;6.28;;;2.90;;
18568;SDS011;14780;48.316;-1.050;2023-03-25T07:39:24;6.38;;;2.75;;
18568;SDS011;14780;48.316;-1.050;2023-03-25T07:42:08;5.93;;;2.60;;
18568;SDS011;14780;48.316;-1.050;2023-03-25T07:44:53;5.85;;;2.95;;
18568;SDS011;14780;48.316;-1.050;2023-03-25T07:47:38;6.60;;;2.63;;
18568;SDS011;14780;48.316;-1.050;2023-03-25T07:50:23;5.40;;;2.58;;
18568;SDS011;14780;48.316;-1.050;2023-03-25T07:53:08;6.85;;;2.72;;
18568;SDS011;14780;48.316;-1.050;2023-03-25T07:55:53;7.20;;;2.63;;
18568;SDS011;14780;48.316;-1.050;2023-03-25T07:58:37;5.15;;;2.70;;
18568;SDS011;14780;48.316;-1.050;2023-03-25T08:01:23;13.10;;;6.97;;
18568;SDS011;14780;48.316;-1.050;2023-03-25T08:04:07;26.70;;;15.45;;
18568;SDS011;14780;48.316;-1.050;2023-03-25T08:06:52;35.15;;;21.88;;
18568;SDS011;14780;48.316;-1.050;2023-03-25T08:09:36;46.08;;;26.10;;
18568;SDS011;14780;48.316;-1.050;2023-03-25T08:12:21;37.63;;;24.23;;
18568;SDS011;14780;48.316;-1.050;2023-03-25T08:15:06;43.83;;;26.73;;
18568;SDS011;14780;48.316;-1.050;2023-03-25T08:17:51;41.65;;;25.13;;
18568;SDS011;14780;48.316;-1.050;2023-03-25T08:20:36;34.20;;;22.08;;
18568;SDS011;14780;48.316;-1.050;2023-03-25T08:23:21;33.60;;;20.33;;
18568;SDS011;14780;48.316;-1.050;2023-03-25T08:26:06;29.98;;;19.80;;
18568;SDS011;14780;48.316;-1.050;2023-03-25T08:28:51;28.33;;;18.23;;
18568;SDS011;14780;48.316;-1.050;2023-03-25T08:31:40;28.13;;;18.00;;
18568;SDS011;14780;48.316;-1.050;2023-03-25T08:34:25;26.20;;;17.33;;
18568;SDS011;14780;48.316;-1.050;2023-03-25T08:37:10;29.25;;;16.67;;
18568;SDS011;14780;48.316;-1.050;2023-03-25T08:39:55;26.17;;;14.35;;
18568;SDS011;14780;48.316;-1.050;2023-03-25T08:42:40;27.33;;;16.13;;
18568;SDS011;14780;48.316;-1.050;2023-03-25T08:45:25;23.92;;;13.90;;
18568;SDS011;14780;48.316;-1.050;2023-03-25T08:48:10;21.83;;;13.70;;
18568;SDS011;14780;48.316;-1.050;2023-03-25T08:50:55;24.23;;;13.13;;
18568;SDS011;14780;48.316;-1.050;2023-03-25T08:53:39;20.15;;;12.35;;
18568;SDS011;14780;48.316;-1.050;2023-03-25T08:56:24;21.45;;;11.65;;
18568;SDS011;14780;48.316;-1.050;2023-03-25T08:59:09;22.08;;;11.43;;
18568;SDS011;14780;48.316;-1.050;2023-03-25T09:01:55;18.67;;;10.35;;
18568;SDS011;14780;48.316;-1.050;2023-03-25T09:04:40;19.42;;;10.65;;
18568;SDS011;14780;48.316;-1.050;2023-03-25T09:07:25;19.10;;;10.52;;
18568;SDS011;14780;48.316;-1.050;2023-03-25T09:10:09;16.27;;;9.00;;
18568;SDS011;14780;48.316;-1.050;2023-03-25T09:12:55;17.20;;;8.32;;
18568;SDS011;14780;48.316;-1.050;2023-03-25T09:15:40;23.42;;;8.95;;
18568;SDS011;14780;48.316;-1.050;2023-03-25T09:18:25;16.75;;;9.00;;
18568;SDS011;14780;48.316;-1.050;2023-03-25T09:21:10;15.93;;;8.30;;
18568;SDS011;14780;48.316;-1.050;2023-03-25T09:23:54;15.60;;;7.70;;
18568;SDS011;14780;48.316;-1.050;2023-03-25T09:26:39;20.33;;;8.02;;
18568;SDS011;14780;48.316;-1.050;2023-03-25T09:29:24;18.02;;;8.38;;
18568;SDS011;14780;48.316;-1.050;2023-03-25T09:32:09;15.40;;;7.63;;
18568;SDS011;14780;48.316;-1.050;2023-03-25T09:34:53;14.48;;;7.45;;
18568;SDS011;14780;48.316;-1.050;2023-03-25T09:37:38;15.93;;;7.72;;
18568;SDS011;14780;48.316;-1.050;2023-03-25T09:40:23;13.52;;;7.35;;
18568;SDS011;14780;48.316;-1.050;2023-03-25T09:46:15;14.15;;;6.93;;
18568;SDS011;14780;48.316;-1.050;2023-03-25T09:49:00;15.02;;;6.60;;
18568;SDS011;14780;48.316;-1.050;2023-03-25T09:51:45;17.35;;;6.97;;
18568;SDS011;14780;48.316;-1.050;2023-03-25T09:54:35;15.00;;;6.47;;
18568;SDS011;14780;48.316;-1.050;2023-03-25T09:57:26;12.77;;;5.97;;
18568;SDS011;14780;48.316;-1.050;2023-03-25T10:00:19;15.00;;;6.40;;
18568;SDS011;14780;48.316;-1.050;2023-03-25T10:03:19;14.48;;;6.60;;
18568;SDS011;14780;48.316;-1.050;2023-03-25T10:06:15;15.60;;;6.30;;
18568;SDS011;14780;48.316;-1.050;2023-03-25T10:09:06;14.88;;;6.20;;
18568;SDS011;14780;48.316;-1.050;2023-03-25T10:21:13;12.52;;;5.57;;
18568;SDS011;14780;48.316;-1.050;2023-03-25T10:27:08;13.73;;;6.10;;
18568;SDS011;14780;48.316;-1.050;2023-03-25T10:32:55;11.15;;;6.43;;
18568;SDS011;14780;48.316;-1.050;2023-03-25T10:35:46;15.27;;;6.13;;
18568;SDS011;14780;48.316;-1.050;2023-03-25T10:38:32;25.52;;;5.43;;
18568;SDS011;14780;48.316;-1.050;2023-03-25T10:41:33;11.05;;;5.15;;
18568;SDS011;14780;48.316;-1.050;2023-03-25T10:44:21;13.50;;;5.30;;
18568;SDS011;14780;48.316;-1.050;2023-03-25T10:47:14;9.48;;;4.85;;
18568;SDS011;14780;48.316;-1.050;2023-03-25T10:50:08;11.13;;;5.03;;
18568;SDS011;14780;48.316;-1.050;2023-03-25T10:52:58;12.73;;;5.40;;
18568;SDS011;14780;48.316;-1.050;2023-03-25T10:55:44;10.57;;;5.32;;
18568;SDS011;14780;48.316;-1.050;2023-03-25T10:58:30;13.07;;;5.05;;
18568;SDS011;14780;48.316;-1.050;2023-03-25T11:01:18;13.70;;;5.25;;
18568;SDS011;14780;48.316;-1.050;2023-03-25T11:07:08;11.30;;;4.63;;
18568;SDS011;14780;48.316;-1.050;2023-03-25T11:10:16;13.02;;;5.18;;
18568;SDS011;14780;48.316;-1.050;2023-03-25T11:13:11;10.93;;;4.68;;
18568;SDS011;14780;48.316;-1.050;2023-03-25T11:16:00;11.63;;;5.30;;
18568;SDS011;14780;48.316;-1.050;2023-03-25T11:18:46;12.00;;;4.13;;
18568;SDS011;14780;48.316;-1.050;2023-03-25T11:21:32;12.32;;;5.07;;
18568;SDS011;14780;48.316;-1.050;2023-03-25T11:24:18;12.55;;;4.68;;
18568;SDS011;14780;48.316;-1.050;2023-03-25T11:27:06;10.75;;;4.35;;
18568;SDS011;14780;48.316;-1.050;2023-03-25T11:29:52;9.63;;;3.90;;
18568;SDS011;14780;48.316;-1.050;2023-03-25T11:32:42;12.93;;;4.15;;
18568;SDS011;14780;48.316;-1.050;2023-03-25T11:35:28;17.88;;;6.45;;
18568;SDS011;14780;48.316;-1.050;2023-03-25T11:38:17;14.80;;;7.82;;
18568;SDS011;14780;48.316;-1.050;2023-03-25T11:41:04;15.20;;;7.97;;
18568;SDS011;14780;48.316;-1.050;2023-03-25T11:43:50;14.32;;;7.60;;
18568;SDS011;14780;48.316;-1.050;2023-03-25T11:46:35;12.75;;;6.70;;
18568;SDS011;14780;48.316;-1.050;2023-03-25T11:49:26;13.65;;;6.97;;
18568;SDS011;14780;48.316;-1.050;2023-03-25T11:52:19;14.52;;;6.45;;
18568;SDS011;14780;48.316;-1.050;2023-03-25T11:55:15;14.77;;;7.07;;
18568;SDS011;14780;48.316;-1.050;2023-03-25T11:58:12;12.55;;;5.60;;
18568;SDS011;14780;48.316;-1.050;2023-03-25T12:04:07;11.65;;;5.43;;
18568;SDS011;14780;48.316;-1.050;2023-03-25T12:07:08;12.05;;;5.38;;
18568;SDS011;14780;48.316;-1.050;2023-03-25T12:10:02;15.95;;;5.95;;
18568;SDS011;14780;48.316;-1.050;2023-03-25T12:15:41;14.27;;;5.68;;
18568;SDS011;14780;48.316;-1.050;2023-03-25T12:31:11;11.15;;;5.30;;
18568;SDS011;14780;48.316;-1.050;2023-03-25T12:40:31;11.68;;;4.57;;
18568;SDS011;14780;48.316;-1.050;2023-03-25T12:46:59;14.95;;;4.88;;
18568;SDS011;14780;48.316;-1.050;2023-03-25T12:53:14;8.60;;;4.18;;
18568;SDS011;14780;48.316;-1.050;2023-03-25T13:05:24;7.78;;;3.88;;
18568;SDS011;14780;48.316;-1.050;2023-03-25T13:14:36;8.48;;;4.05;;
18568;SDS011;14780;48.316;-1.050;2023-03-25T13:17:28;8.88;;;3.95;;
18568;SDS011;14780;48.316;-1.050;2023-03-25T13:23:05;8.55;;;3.40;;
18568;SDS011;14780;48.316;-1.050;2023-03-25T13:26:16;7.53;;;3.45;;
18568;SDS011;14780;48.316;-1.050;2023-03-25T13:29:03;7.85;;;3.78;;
18568;SDS011;14780;48.316;-1.050;2023-03-25T13:31:55;9.43;;;4.28;;
18568;SDS011;14780;48.316;-1.050;2023-03-25T13:37:45;10.50;;;4.15;;
18568;SDS011;14780;48.316;-1.050;2023-03-25T13:40:42;8.18;;;3.58;;
18568;SDS011;14780;48.316;-1.050;2023-03-25T13:43:32;8.68;;;3.33;;
18568;SDS011;14780;48.316;-1.050;2023-03-25T13:46:52;9.57;;;4.03;;
18568;SDS011;14780;48.316;-1.050;2023-03-25T13:52:49;10.82;;;3.88;;
18568;SDS011;14780;48.316;-1.050;2023-03-25T13:55:43;7.20;;;3.30;;
18568;SDS011;14780;48.316;-1.050;2023-03-25T14:11:16;8.35;;;3.70;;
18568;SDS011;14780;48.316;-1.050;2023-03-25T14:14:16;7.40;;;3.47;;
18568;SDS011;14780;48.316;-1.050;2023-03-25T14:17:04;8.77;;;3.40;;
18568;SDS011;14780;48.316;-1.050;2023-03-25T14:19:51;10.75;;;3.83;;
18568;SDS011;14780;48.316;-1.050;2023-03-25T14:22:41;10.30;;;3.38;;
18568;SDS011;14780;48.316;-1.050;2023-03-25T14:25:33;8.00;;;3.25;;
18568;SDS011;14780;48.316;-1.050;2023-03-25T14:28:33;9.82;;;3.22;;
18568;SDS011;14780;48.316;-1.050;2023-03-25T14:31:30;8.15;;;3.47;;
18568;SDS011;14780;48.316;-1.050;2023-03-25T14:34:21;7.00;;;3.45;;
18568;SDS011;14780;48.316;-1.050;2023-03-25T14:40:01;7.38;;;3.40;;
18568;SDS011;14780;48.316;-1.050;2023-03-25T14:43:36;7.20;;;3.08;;
18568;SDS011;14780;48.316;-1.050;2023-03-25T14:46:33;6.85;;;2.90;;
18568;SDS011;14780;48.316;-1.050;2023-03-25T14:49:19;7.75;;;3.47;;
18568;SDS011;14780;48.316;-1.050;2023-03-25T14:52:08;8.35;;;3.38;;
18568;SDS011;14780;48.316;-1.050;2023-03-25T14:55:00;7.25;;;3.47;;
18568;SDS011;14780;48.316;-1.050;2023-03-25T14:58:01;5.18;;;2.55;;
18568;SDS011;14780;48.316;-1.050;2023-03-25T15:01:09;8.02;;;2.97;;
18568;SDS011;14780;48.316;-1.050;2023-03-25T15:07:15;6.68;;;3.20;;
18568;SDS011;14780;48.316;-1.050;2023-03-25T15:10:02;6.85;;;3.00;;
18568;SDS011;14780;48.316;-1.050;2023-03-25T15:13:35;6.82;;;2.92;;
18568;SDS011;14780;48.316;-1.050;2023-03-25T15:19:20;6.18;;;3.00;;
18568;SDS011;14780;48.316;-1.050;2023-03-25T15:22:05;6.63;;;3.13;;
18568;SDS011;14780;48.316;-1.050;2023-03-25T15:25:01;9.50;;;3.55;;
18568;SDS011;14780;48.316;-1.050;2023-03-25T15:28:33;8.13;;;3.10;;
18568;SDS011;14780;48.316;-1.050;2023-03-25T15:31:27;5.05;;;2.80;;
18568;SDS011;14780;48.316;-1.050;2023-03-25T15:40:53;8.43;;;2.80;;
18568;SDS011;14780;48.316;-1.050;2023-03-25T15:53:26;6.53;;;2.88;;
18568;SDS011;14780;48.316;-1.050;2023-03-25T15:56:30;7.38;;;2.72;;
18568;SDS011;14780;48.316;-1.050;2023-03-25T15:59:37;5.70;;;2.90;;
18568;SDS011;14780;48.316;-1.050;2023-03-25T16:02:30;6.22;;;3.15;;
18568;SDS011;14780;48.316;-1.050;2023-03-25T16:05:32;6.85;;;3.10;;
18568;SDS011;14780;48.316;-1.050;2023-03-25T16:08:36;9.07;;;3.00;;
18568;SDS011;14780;48.316;-1.050;2023-03-25T16:11:26;5.15;;;2.67;;
18568;SDS011;14780;48.316;-1.050;2023-03-25T16:14:12;6.28;;;2.95;;
18568;SDS011;14780;48.316;-1.050;2023-03-25T16:17:00;7.00;;;2.72;;
18568;SDS011;14780;48.316;-1.050;2023-03-25T16:19:54;6.88;;;3.05;;
18568;SDS011;14780;48.316;-1.050;2023-03-25T16:22:40;6.53;;;2.85;;
18568;SDS011;14780;48.316;-1.050;2023-03-25T16:25:29;5.68;;;2.60;;
18568;SDS011;14780;48.316;-1.050;2023-03-25T16:28:28;7.32;;;2.70;;
18568;SDS011;14780;48.316;-1.050;2023-03-25T16:31:27;6.28;;;2.78;;
18568;SDS011;14780;48.316;-1.050;2023-03-25T16:34:24;5.50;;;2.75;;
18568;SDS011;14780;48.316;-1.050;2023-03-25T16:37:11;6.00;;;2.67;;
18568;SDS011;14780;48.316;-1.050;2023-03-25T16:39:56;7.88;;;3.13;;
18568;SDS011;14780;48.316;-1.050;2023-03-25T16:42:41;8.95;;;2.85;;
18568;SDS011;14780;48.316;-1.050;2023-03-25T16:45:26;5.95;;;2.78;;
18568;SDS011;14780;48.316;-1.050;2023-03-25T16:48:15;6.38;;;2.60;;
18568;SDS011;14780;48.316;-1.050;2023-03-25T16:51:21;7.20;;;3.00;;
18568;SDS011;14780;48.316;-1.050;2023-03-25T16:54:30;5.75;;;2.88;;
18568;SDS011;14780;48.316;-1.050;2023-03-25T16:57:20;7.55;;;2.72;;
18568;SDS011;14780;48.316;-1.050;2023-03-25T17:00:18;8.52;;;3.30;;
18568;SDS011;14780;48.316;-1.050;2023-03-25T17:03:10;7.28;;;2.63;;
18568;SDS011;14780;48.316;-1.050;2023-03-25T17:06:01;6.30;;;3.05;;
18568;SDS011;14780;48.316;-1.050;2023-03-25T17:09:20;5.38;;;2.63;;
18568;SDS011;14780;48.316;-1.050;2023-03-25T17:12:17;11.40;;;3.08;;
18568;SDS011;14780;48.316;-1.050;2023-03-25T17:15:04;5.30;;;2.70;;
18568;SDS011;14780;48.316;-1.050;2023-03-25T17:17:52;6.35;;;2.72;;
18568;SDS011;14780;48.316;-1.050;2023-03-25T17:23:41;8.85;;;2.70;;
18568;SDS011;14780;48.316;-1.050;2023-03-25T17:26:32;6.00;;;2.95;;
18568;SDS011;14780;48.316;-1.050;2023-03-25T17:29:47;6.47;;;2.83;;
18568;SDS011;14780;48.316;-1.050;2023-03-25T17:32:42;6.30;;;2.55;;
18568;SDS011;14780;48.316;-1.050;2023-03-25T17:35:29;6.13;;;2.67;;
18568;SDS011;14780;48.316;-1.050;2023-03-25T17:38:25;9.02;;;3.08;;
18568;SDS011;14780;48.316;-1.050;2023-03-25T17:41:13;7.05;;;3.00;;
18568;SDS011;14780;48.316;-1.050;2023-03-25T17:44:00;6.72;;;2.90;;
18568;SDS011;14780;48.316;-1.050;2023-03-25T17:46:46;7.97;;;2.80;;
18568;SDS011;14780;48.316;-1.050;2023-03-25T17:49:30;9.00;;;3.35;;
18568;SDS011;14780;48.316;-1.050;2023-03-25T17:52:15;9.75;;;3.60;;
18568;SDS011;14780;48.316;-1.050;2023-03-25T17:55:02;8.57;;;2.90;;
18568;SDS011;14780;48.316;-1.050;2023-03-25T17:57:48;8.02;;;3.15;;
18568;SDS011;14780;48.316;-1.050;2023-03-25T18:00:33;8.30;;;3.13;;
18568;SDS011;14780;48.316;-1.050;2023-03-25T18:03:21;11.88;;;3.28;;
18568;SDS011;14780;48.316;-1.050;2023-03-25T18:06:10;8.60;;;3.58;;
18568;SDS011;14780;48.316;-1.050;2023-03-25T18:08:56;8.23;;;3.08;;
18568;SDS011;14780;48.316;-1.050;2023-03-25T18:11:40;9.38;;;3.17;;
18568;SDS011;14780;48.316;-1.050;2023-03-25T18:14:27;8.85;;;3.15;;
18568;SDS011;14780;48.316;-1.050;2023-03-25T18:17:12;10.25;;;2.97;;
18568;SDS011;14780;48.316;-1.050;2023-03-25T18:19:57;9.07;;;3.08;;
18568;SDS011;14780;48.316;-1.050;2023-03-25T18:22:42;6.00;;;2.88;;
18568;SDS011;14780;48.316;-1.050;2023-03-25T18:25:27;6.93;;;3.03;;
18568;SDS011;14780;48.316;-1.050;2023-03-25T18:28:14;7.65;;;3.22;;
18568;SDS011;14780;48.316;-1.050;2023-03-25T18:30:59;6.03;;;2.90;;
18568;SDS011;14780;48.316;-1.050;2023-03-25T18:33:45;8.65;;;2.65;;
18568;SDS011;14780;48.316;-1.050;2023-03-25T18:36:31;10.18;;;3.05;;
18568;SDS011;14780;48.316;-1.050;2023-03-25T18:39:20;7.05;;;2.72;;
18568;SDS011;14780;48.316;-1.050;2023-03-25T18:42:06;9.30;;;3.05;;
18568;SDS011;14780;48.316;-1.050;2023-03-25T18:44:51;6.18;;;3.15;;
18568;SDS011;14780;48.316;-1.050;2023-03-25T18:47:38;6.00;;;2.78;;
18568;SDS011;14780;48.316;-1.050;2023-03-25T18:50:27;5.80;;;3.00;;
18568;SDS011;14780;48.316;-1.050;2023-03-25T18:53:15;5.28;;;2.63;;
18568;SDS011;14780;48.316;-1.050;2023-03-25T18:56:03;8.10;;;3.15;;
18568;SDS011;14780;48.316;-1.050;2023-03-25T18:58:49;5.38;;;2.58;;
18568;SDS011;14780;48.316;-1.050;2023-03-25T19:01:35;6.13;;;2.88;;
18568;SDS011;14780;48.316;-1.050;2023-03-25T19:04:20;10.80;;;3.20;;
18568;SDS011;14780;48.316;-1.050;2023-03-25T19:07:05;7.82;;;2.75;;
18568;SDS011;14780;48.316;-1.050;2023-03-25T19:09:51;10.98;;;3.00;;
18568;SDS011;14780;48.316;-1.050;2023-03-25T19:12:36;5.05;;;2.60;;
18568;SDS011;14780;48.316;-1.050;2023-03-25T19:15:22;7.47;;;2.88;;
18568;SDS011;14780;48.316;-1.050;2023-03-25T19:18:15;7.38;;;2.85;;
18568;SDS011;14780;48.316;-1.050;2023-03-25T19:21:01;8.85;;;3.20;;